Лида

Карта отелей и гостиниц, располагающихся рядом с аэропортом Лида :

Лида 53° 52' 36.3612" N, 25° 22' 40.6812" E
Код аэродрома ИКАО
UMDD
Код аэродрома RU
УМДД
Координаты
N53.87677° E025.37797°
Превышение над уровнем моря
144
Основная полоса
15/33
Курс магнитный
153/333
Длина основной ВПП
2500
Ширина основной ВПП
39
Покрытие основной ВПП
Твёрдое (бетон)
Освещение ВПП
Нет
Тип: 
Аэродром
Класс аэродрома: 
Принадлежность: 
МО
Статус: 
Действующий
Сайт: 
E-mail аэродрома: 
Страна: 
Беларусь
Регион: 
Город: 
Дополнительная информация: 
Оператор: МО РБ, 116-я гвардейская Радомская Краснознаменная штурмовая авиационная база.

Найти трансфер

С помощью этой формы Вы можете найти трансфер из аэропорта Лида в город, аэропорт или вокзал:

Погода в аэропортах:

Авиационная погода в Москве - Остафьево

Погода METAR: 
UUMO 221800Z 10004MPS 2000 R07/2000U SN OVC008 M04/M05 Q1011 RESN R07/491030 NOSIG RMK QFE744/0992
Время наблюдения
2022-01-22T18:00:00Z
Температура C
-4.0
Точка росы
-5.0
Направление ветра
100
Скорость ветра (узлы)
8
Метео видимость
1.24
Облачность
OVC
Нижняя граница облачности (футы)
800
Явления погоды
SN
Условия полета
IFR
Аэропорт подробнее: 
OVC – сплошная облачность;
SN – снег;

Авиационная погода в Киеве

Регион: 
Погода METAR: 
UKKK 221800Z 33004MPS 8000 -SN SCT012 BKN036 M04/M06 Q1012 NOSIG
Время наблюдения
2022-01-22T18:00:00Z
Температура C
-4.0
Точка росы
-6.0
Направление ветра
330
Скорость ветра (узлы)
8
Метео видимость
4.97
Облачность
SCT
BKN
Нижняя граница облачности (футы)
1200
3600
Явления погоды
-SN
Условия полета
MVFR
Аэропорт подробнее: 
SCT – разбросанная отдельная облачность; BKN – значительная (рассеянная, разорванная) облачность;
-SN – слабый снег;

Авиационная погода в аэропорту Новый

Регион: 
Погода METAR: 
UHHH 221800Z 19001MPS 4200 FU NSC M29/M32 Q1027 R23R/090060 NOSIG RMK QFE764/1019
Время наблюдения
2022-01-22T18:00:00Z
Температура C
-29.0
Точка росы
-32.0
Направление ветра
190
Скорость ветра (узлы)
2
Метео видимость
2.61
Облачность
CLR
Нижняя граница облачности (футы)
Явления погоды
FU
Условия полета
IFR
Аэропорт подробнее: 
CLR — нет облаков ниже 3000 м
FU – дым (видимость менее 10 км);

Авиационная погода в Москва - Шереметьево

Погода METAR: 
UUEE 221800Z 07004MPS 9000 4000NE -SN OVC008 M04/M06 Q1011 R06R/590530 R06C/590526 R06L/590530 NOSIG
Время наблюдения
2022-01-22T18:00:00Z
Температура C
-4.0
Точка росы
-6.0
Направление ветра
70
Скорость ветра (узлы)
8
Метео видимость
5.59
Облачность
OVC
Нижняя граница облачности (футы)
800
Явления погоды
-SN
Условия полета
IFR
Аэропорт подробнее: 
OVC – сплошная облачность;
-SN – слабый снег;